Time;durP1;ratioP1;P1;durP2;ratioP2;P2;SDS_P1;SDS_P2;PMS_P1;PMS_P2;Temp;Humidity;BMP_temperature;BMP_pressure;BME280_temperature;BME280_humidity;BME280_pressure;Samples;Min_cycle;Max_cycle;Signal;HPM_P1;HPM_P2
2022/01/04 00:01:19;;;;;;;12.52;2.83;;;22.70;63.50;;;;;;4970727;28;20038;-78
2022/01/04 00:03:47;;;;;;;19.63;3.97;;;22.70;63.70;;;;;;4973970;28;20448;-78
2022/01/04 00:06:13;;;;;;;14.90;3.83;;;22.70;63.70;;;;;;4974294;28;20401;-77
2022/01/04 00:08:40;;;;;;;12.48;3.03;;;22.70;63.70;;;;;;4970968;28;20023;-77
2022/01/04 00:11:14;;;;;;;15.32;3.53;;;22.70;63.70;;;;;;4981021;28;20473;-78
2022/01/04 00:13:41;;;;;;;11.00;2.70;;;22.70;63.80;;;;;;4971112;28;20042;-76
2022/01/04 00:16:08;;;;;;;9.95;2.95;;;22.70;63.90;;;;;;4972079;28;20500;-79
2022/01/04 00:18:34;;;;;;;10.52;3.60;;;22.60;63.80;;;;;;4970252;28;20113;-73
2022/01/04 00:21:01;;;;;;;7.60;2.90;;;22.60;63.90;;;;;;4970517;28;20023;-78
2022/01/04 00:23:28;;;;;;;41.60;7.65;;;22.60;63.90;;;;;;4969572;28;20031;-76
2022/01/04 00:25:54;;;;;;;28.20;5.60;;;22.60;64.10;;;;;;4976375;28;20031;-78
2022/01/04 00:28:20;;;;;;;16.17;4.50;;;22.60;64.20;;;;;;4971724;28;20110;-77
2022/01/04 00:30:47;;;;;;;11.35;3.65;;;22.60;64.20;;;;;;4972333;28;20033;-78
2022/01/04 00:33:18;;;;;;;12.50;3.90;;;22.60;64.10;;;;;;4972695;28;20491;-78
2022/01/04 00:35:45;;;;;;;12.70;3.42;;;22.60;64.00;;;;;;4970506;28;20690;-77
2022/01/04 00:38:12;;;;;;;11.27;3.53;;;22.60;64.00;;;;;;4970955;28;20027;-77
2022/01/04 00:40:38;;;;;;;10.38;3.60;;;22.50;63.90;;;;;;4975838;28;20023;-77
2022/01/04 00:43:05;;;;;;;8.88;3.70;;;22.50;64.00;;;;;;4974676;28;20714;-75
2022/01/04 00:45:36;;;;;;;17.52;4.18;;;22.50;64.00;;;;;;4970287;28;20033;-77
2022/01/04 00:50:33;;;;;;;15.32;4.32;;;22.50;63.90;;;;;;4976103;28;20071;-77
2022/01/04 00:53:00;;;;;;;14.00;3.60;;;22.50;63.90;;;;;;4974672;28;20031;-75
2022/01/04 00:55:27;;;;;;;13.68;3.22;;;22.50;63.90;;;;;;4965863;28;20062;-78
2022/01/04 00:57:56;;;;;;;20.17;4.35;;;22.50;63.80;;;;;;4972336;28;20115;-77
2022/01/04 01:00:23;;;;;;;23.90;4.35;;;22.50;63.80;;;;;;4972584;28;20027;-75
2022/01/04 01:02:50;;;;;;;42.72;7.00;;;22.40;63.80;;;;;;4974211;28;20082;-78
2022/01/04 01:05:18;;;;;;;19.33;3.95;;;22.40;63.90;;;;;;4963664;28;20019;-77
2022/01/04 01:07:44;;;;;;;15.07;3.80;;;22.40;63.90;;;;;;4968867;28;20038;-76
2022/01/04 01:12:58;;;;;;;11.38;3.47;;;22.40;63.90;;;;;;4974383;28;20564;-77
2022/01/04 01:15:24;;;;;;;10.32;3.47;;;22.40;63.90;;;;;;4974628;28;20105;-74
2022/01/04 01:17:51;;;;;;;11.95;4.10;;;22.40;63.90;;;;;;4968212;28;20454;-76
2022/01/04 01:20:18;;;;;;;8.55;3.00;;;22.40;63.90;;;;;;4971864;28;20026;-76
2022/01/04 01:22:45;;;;;;;11.88;3.22;;;22.30;63.80;;;;;;4969872;28;20039;-77
2022/01/04 01:25:13;;;;;;;7.95;3.50;;;22.30;63.90;;;;;;4975300;28;20109;-76
2022/01/04 01:27:42;;;;;;;10.85;3.45;;;22.30;63.90;;;;;;4970401;28;20047;-77
2022/01/04 01:30:10;;;;;;;10.82;3.42;;;22.30;64.00;;;;;;4973352;28;20025;-77
2022/01/04 01:32:36;;;;;;;12.98;3.25;;;22.30;64.10;;;;;;4970146;28;20042;-75
2022/01/04 01:35:03;;;;;;;14.25;3.42;;;22.30;64.20;;;;;;4974944;28;20029;-76
2022/01/04 01:37:30;;;;;;;12.02;3.90;;;22.30;64.30;;;;;;4970850;28;20027;-76
2022/01/04 01:39:56;;;;;;;12.35;3.25;;;22.30;64.30;;;;;;4973456;28;20022;-75
2022/01/04 01:42:23;;;;;;;11.85;3.60;;;22.30;64.40;;;;;;4970023;28;20027;-76
2022/01/04 01:44:50;;;;;;;15.23;3.30;;;22.30;65.20;;;;;;4968703;28;20033;-75
2022/01/04 01:47:17;;;;;;;11.55;3.17;;;22.30;64.60;;;;;;4970575;28;20410;-77
2022/01/04 01:49:44;;;;;;;11.27;4.07;;;22.20;64.60;;;;;;4970917;28;20027;-77
2022/01/04 01:52:11;;;;;;;9.85;2.80;;;22.20;64.60;;;;;;4973263;28;20015;-74
2022/01/04 01:54:38;;;;;;;8.73;2.92;;;22.20;64.70;;;;;;4970480;28;20026;-77
2022/01/04 01:57:04;;;;;;;8.65;3.22;;;22.20;64.60;;;;;;4973169;28;20015;-76
2022/01/04 01:59:31;;;;;;;35.58;4.78;;;22.20;64.70;;;;;;4967463;28;20106;-76
2022/01/04 02:01:58;;;;;;;15.65;3.78;;;22.20;64.90;;;;;;4972135;28;20027;-78
2022/01/04 02:04:25;;;;;;;13.10;3.70;;;22.20;65.00;;;;;;4968289;28;20110;-77
2022/01/04 02:06:51;;;;;;;21.42;5.35;;;22.10;64.90;;;;;;4973146;28;20434;-76
2022/01/04 02:09:18;;;;;;;25.35;4.75;;;22.10;65.00;;;;;;4972027;28;20023;-77
2022/01/04 02:11:44;;;;;;;45.95;4.57;;;22.10;65.50;;;;;;4967571;28;20102;-77
2022/01/04 02:14:11;;;;;;;33.33;4.38;;;22.10;65.80;;;;;;4963138;28;20018;-78
2022/01/04 02:16:37;;;;;;;22.45;4.50;;;22.10;65.90;;;;;;4971593;28;20026;-77
2022/01/04 02:19:06;;;;;;;14.45;3.28;;;22.10;65.90;;;;;;4972204;28;20049;-76
2022/01/04 02:21:35;;;;;;;10.13;4.00;;;22.10;65.80;;;;;;4951738;28;20079;-77
2022/01/04 02:24:02;;;;;;;15.93;3.42;;;22.00;65.50;;;;;;4952269;28;20027;-76
2022/01/04 02:26:31;;;;;;;14.95;3.47;;;22.00;65.30;;;;;;4949232;28;20164;-77
2022/01/04 02:28:59;;;;;;;6.18;3.00;;;22.00;65.20;;;;;;4948124;28;20025;-78
2022/01/04 02:31:26;;;;;;;10.93;2.55;;;22.00;65.20;;;;;;4954592;28;20024;-78
2022/01/04 02:33:53;;;;;;;9.23;2.42;;;22.00;65.20;;;;;;4951920;28;20027;-76
2022/01/04 02:36:20;;;;;;;7.70;2.90;;;22.00;65.20;;;;;;4946349;28;20047;-78
2022/01/04 02:38:46;;;;;;;18.52;4.18;;;22.00;65.20;;;;;;4949000;28;20035;-79
2022/01/04 02:41:13;;;;;;;17.02;4.57;;;22.00;65.20;;;;;;4955038;28;20033;-79
2022/01/04 02:43:39;;;;;;;9.23;2.58;;;22.00;65.30;;;;;;4951381;28;20521;-79
2022/01/04 02:46:06;;;;;;;14.82;2.83;;;21.90;65.30;;;;;;4947760;28;20111;-77
2022/01/04 02:48:32;;;;;;;18.40;3.55;;;21.90;65.30;;;;;;4951180;28;20037;-78
2022/01/04 02:50:59;;;;;;;32.15;4.95;;;22.00;65.50;;;;;;4953873;28;20110;-77
2022/01/04 02:53:25;;;;;;;36.95;5.82;;;21.90;66.00;;;;;;4952435;28;20463;-76
2022/01/04 02:55:51;;;;;;;21.05;3.53;;;21.90;66.70;;;;;;4953058;28;20394;-76
2022/01/04 02:58:18;;;;;;;21.75;5.30;;;21.90;67.70;;;;;;4953634;28;20045;-78
2022/01/04 03:00:45;;;;;;;21.77;4.00;;;21.90;67.20;;;;;;4945151;28;20023;-78
2022/01/04 03:03:12;;;;;;;61.22;7.45;;;21.90;67.10;;;;;;4949937;28;20021;-76
2022/01/04 03:05:39;;;;;;;88.97;11.70;;;21.90;66.80;;;;;;4969217;28;20415;-77
2022/01/04 03:08:06;;;;;;;53.60;9.10;;;21.90;66.70;;;;;;4948169;28;20082;-76
2022/01/04 03:10:33;;;;;;;32.67;5.05;;;21.90;66.70;;;;;;4952851;28;20019;-77
2022/01/04 03:12:59;;;;;;;19.15;4.55;;;21.80;66.60;;;;;;4948841;28;20047;-77
2022/01/04 03:15:26;;;;;;;24.65;5.35;;;21.80;66.50;;;;;;4950464;28;20437;-77
2022/01/04 03:17:52;;;;;;;21.80;3.05;;;21.80;66.40;;;;;;4951815;28;20110;-78
2022/01/04 03:20:19;;;;;;;11.80;2.78;;;21.80;66.40;;;;;;4950664;28;20428;-77
2022/01/04 03:22:45;;;;;;;10.98;3.22;;;21.80;66.50;;;;;;4963346;28;20035;-79
2022/01/04 03:25:12;;;;;;;13.88;3.58;;;21.80;66.50;;;;;;4968078;28;20034;-76
2022/01/04 03:27:39;;;;;;;21.35;4.38;;;21.70;66.50;;;;;;4973036;28;20081;-77
2022/01/04 03:30:07;;;;;;;32.72;5.38;;;21.70;66.50;;;;;;4969951;28;20037;-76
2022/01/04 03:32:33;;;;;;;17.17;3.30;;;21.70;66.50;;;;;;4968484;28;20282;-76
2022/01/04 03:35:00;;;;;;;38.92;6.13;;;21.70;66.90;;;;;;4971024;28;20026;-73
2022/01/04 03:37:26;;;;;;;42.60;5.63;;;21.70;67.40;;;;;;4967568;28;20023;-76
2022/01/04 03:39:53;;;;;;;100.50;10.60;;;21.70;67.70;;;;;;4952071;28;20587;-77
2022/01/04 03:42:19;;;;;;;38.00;4.53;;;21.70;67.90;;;;;;4971525;28;20027;-77
2022/01/04 03:44:46;;;;;;;50.55;6.10;;;21.70;67.60;;;;;;4971023;28;20031;-76
2022/01/04 03:47:13;;;;;;;60.17;9.35;;;21.70;68.00;;;;;;4953342;28;20480;-76
2022/01/04 03:49:39;;;;;;;80.25;10.75;;;21.70;67.30;;;;;;4969205;28;20050;-78
2022/01/04 03:52:06;;;;;;;43.03;10.48;;;21.70;67.40;;;;;;4975551;28;20018;-73
2022/01/04 03:54:32;;;;;;;52.33;13.40;;;21.60;67.70;;;;;;4968468;28;20043;-72
2022/01/04 03:56:59;;;;;;;66.00;17.60;;;21.60;67.80;;;;;;4970480;28;20038;-77
2022/01/04 03:59:25;;;;;;;58.15;11.20;;;21.60;67.70;;;;;;4948561;28;20114;-74
2022/01/04 04:01:53;;;;;;;20.10;5.80;;;21.60;67.70;;;;;;4965576;28;20395;-75
2022/01/04 04:04:20;;;;;;;17.27;4.10;;;21.60;67.50;;;;;;4967611;28;20050;-73
2022/01/04 04:06:47;;;;;;;15.35;3.63;;;21.60;67.40;;;;;;4963739;28;20039;-73
2022/01/04 04:09:13;;;;;;;16.75;2.95;;;21.60;67.30;;;;;;4966624;28;20545;-75
2022/01/04 04:11:40;;;;;;;21.20;3.70;;;21.60;67.20;;;;;;4970399;28;20042;-76
2022/01/04 04:14:06;;;;;;;24.60;3.92;;;21.60;67.40;;;;;;4970750;28;20106;-77
2022/01/04 04:16:33;;;;;;;10.43;3.38;;;21.60;67.30;;;;;;4967594;28;20030;-76
2022/01/04 04:19:00;;;;;;;40.35;7.38;;;21.50;67.30;;;;;;4971705;28;20090;-74
2022/01/04 04:21:26;;;;;;;58.25;17.17;;;21.60;67.40;;;;;;4965960;28;20042;-73
2022/01/04 04:23:53;;;;;;;55.08;31.90;;;21.60;67.60;;;;;;4966210;28;20031;-77
2022/01/04 04:26:19;;;;;;;35.85;22.15;;;21.60;67.80;;;;;;4968547;28;20035;-80
2022/01/04 04:28:47;;;;;;;22.02;13.68;;;21.60;67.90;;;;;;4970305;28;20030;-78
2022/01/04 04:31:13;;;;;;;14.70;7.93;;;21.50;67.90;;;;;;4970235;28;20085;-75
2022/01/04 04:33:40;;;;;;;15.25;6.15;;;21.60;67.90;;;;;;4967814;28;20070;-77
2022/01/04 04:36:08;;;;;;;11.52;4.25;;;21.60;68.10;;;;;;4971465;28;20074;-78
2022/01/04 04:38:35;;;;;;;11.60;3.08;;;21.60;68.00;;;;;;4966681;28;20501;-79
2022/01/04 04:41:02;;;;;;;12.00;3.03;;;21.60;68.20;;;;;;4971800;28;20133;-74
2022/01/04 04:43:29;;;;;;;9.32;3.05;;;21.60;68.30;;;;;;4963481;28;20437;-75
2022/01/04 04:45:55;;;;;;;8.52;3.22;;;21.60;68.30;;;;;;4965810;28;20023;-75
2022/01/04 04:48:24;;;;;;;19.33;3.72;;;21.60;68.30;;;;;;4973373;28;20022;-79
2022/01/04 04:50:50;;;;;;;16.33;3.22;;;21.60;69.00;;;;;;4972009;28;20387;-75
2022/01/04 04:53:17;;;;;;;18.50;4.88;;;21.60;68.40;;;;;;4972889;28;20102;-78
2022/01/04 04:55:43;;;;;;;16.95;4.65;;;21.60;68.60;;;;;;4970350;28;20027;-75
2022/01/04 04:58:10;;;;;;;18.73;2.85;;;21.60;68.90;;;;;;4978173;28;20032;-78
2022/01/04 05:00:37;;;;;;;20.65;4.43;;;21.70;68.90;;;;;;4972643;28;20034;-77
2022/01/04 05:03:03;;;;;;;11.50;2.63;;;21.70;68.80;;;;;;4968587;28;20027;-75
2022/01/04 05:05:30;;;;;;;7.28;2.17;;;21.70;68.90;;;;;;4968232;28;20463;-75
2022/01/04 05:07:56;;;;;;;4.55;2.25;;;21.70;68.80;;;;;;4970154;28;20045;-76
2022/01/04 05:10:23;;;;;;;11.00;2.55;;;21.70;68.70;;;;;;4974931;28;20422;-77
2022/01/04 05:12:49;;;;;;;10.75;2.92;;;21.70;69.30;;;;;;4972253;28;20069;-79
2022/01/04 05:15:16;;;;;;;11.40;3.63;;;21.70;68.70;;;;;;4973279;28;20106;-78
2022/01/04 05:17:42;;;;;;;5.20;1.77;;;21.70;68.80;;;;;;4971452;28;20064;-76
2022/01/04 05:20:09;;;;;;;9.00;2.60;;;21.70;68.80;;;;;;4976516;28;20030;-78
2022/01/04 05:22:35;;;;;;;10.57;2.65;;;21.70;68.80;;;;;;4973840;28;20038;-77
2022/01/04 05:25:02;;;;;;;10.82;2.60;;;21.80;68.90;;;;;;4973348;28;20034;-74
2022/01/04 05:27:29;;;;;;;4.85;1.83;;;21.80;68.90;;;;;;4971487;28;20034;-77
2022/01/04 05:29:55;;;;;;;16.15;2.83;;;21.80;69.20;;;;;;4974047;28;20046;-75
2022/01/04 05:32:22;;;;;;;10.32;2.30;;;21.80;69.30;;;;;;4970873;28;20027;-77
2022/01/04 05:34:48;;;;;;;20.17;2.42;;;21.80;69.40;;;;;;4977227;28;20023;-76
2022/01/04 05:37:15;;;;;;;26.42;3.58;;;21.80;69.50;;;;;;4974664;28;20030;-77
2022/01/04 05:39:41;;;;;;;19.63;3.28;;;21.80;69.60;;;;;;4970816;28;20030;-76
2022/01/04 05:42:11;;;;;;;12.27;2.22;;;21.90;69.70;;;;;;4972011;28;20074;-73
2022/01/04 05:44:37;;;;;;;23.10;3.03;;;21.90;69.70;;;;;;4970173;28;20023;-72
2022/01/04 05:47:05;;;;;;;46.72;5.80;;;21.90;69.50;;;;;;4974622;28;20054;-73
2022/01/04 05:49:32;;;;;;;108.90;13.18;;;21.90;69.70;;;;;;4965293;28;20114;-71
2022/01/04 05:51:58;;;;;;;67.90;22.88;;;21.90;70.00;;;;;;4970947;28;20497;-75
2022/01/04 05:54:25;;;;;;;82.35;21.70;;;22.00;70.40;;;;;;4971233;28;20058;-75
2022/01/04 05:56:51;;;;;;;50.58;15.68;;;22.00;70.30;;;;;;4953074;28;20073;-74
2022/01/04 05:59:18;;;;;;;33.50;9.73;;;22.00;69.90;;;;;;4970263;28;20019;-75
2022/01/04 06:01:44;;;;;;;32.35;6.68;;;22.00;69.50;;;;;;4971745;28;20073;-72
2022/01/04 06:04:11;;;;;;;65.90;8.77;;;22.10;69.30;;;;;;4955657;28;20047;-70
2022/01/04 06:06:41;;;;;;;55.97;10.45;;;22.10;69.20;;;;;;4971010;28;20077;-71
2022/01/04 06:09:17;;;;;;;64.05;6.28;;;22.10;69.70;;;;;;4971984;28;20050;-71
2022/01/04 06:11:57;;;;;;;44.13;6.60;;;22.10;69.00;;;;;;4968300;28;20510;-70
2022/01/04 06:17:11;;;;;;;89.47;9.55;;;22.20;69.30;;;;;;4959713;28;20045;-73
2022/01/04 06:19:39;;;;;;;78.65;10.73;;;22.20;69.30;;;;;;4974846;28;20308;-73
2022/01/04 06:22:05;;;;;;;45.60;6.35;;;22.30;69.30;;;;;;4964991;28;20046;-73
2022/01/04 06:24:44;;;;;;;51.35;7.35;;;22.30;69.20;;;;;;4962352;28;20041;-73
2022/01/04 06:27:11;;;;;;;35.92;5.47;;;22.30;69.00;;;;;;4970069;28;20042;-77
2022/01/04 06:29:42;;;;;;;39.70;4.88;;;22.40;68.90;;;;;;4972346;28;20046;-74
2022/01/04 06:32:11;;;;;;;31.50;5.22;;;22.40;68.70;;;;;;4953805;28;20506;-75
2022/01/04 06:34:39;;;;;;;35.20;5.00;;;22.50;68.50;;;;;;4970512;28;20035;-78
2022/01/04 06:37:07;;;;;;;32.63;4.78;;;22.50;68.30;;;;;;4970611;28;20030;-73
2022/01/04 06:39:34;;;;;;;14.90;2.53;;;22.50;68.20;;;;;;4967700;28;20019;-76
2022/01/04 06:42:01;;;;;;;10.93;3.38;;;22.50;68.20;;;;;;4970574;28;20030;-76
2022/01/04 06:44:28;;;;;;;12.95;2.58;;;22.60;68.30;;;;;;4970924;28;20030;-75
2022/01/04 06:46:56;;;;;;;22.52;3.67;;;22.60;68.30;;;;;;4956364;28;20066;-77
2022/01/04 06:49:23;;;;;;;13.60;3.22;;;22.70;68.20;;;;;;4969414;28;20529;-74
2022/01/04 06:51:50;;;;;;;12.35;2.30;;;22.70;67.80;;;;;;4968770;28;20109;-69
2022/01/04 06:54:18;;;;;;;22.50;3.35;;;22.70;67.50;;;;;;4969309;28;20035;-72
2022/01/04 06:56:45;;;;;;;26.80;5.28;;;22.70;67.00;;;;;;4935460;28;20125;-76
2022/01/04 06:59:12;;;;;;;8.93;3.20;;;22.70;66.70;;;;;;4965441;28;20050;-76
2022/01/04 07:01:39;;;;;;;21.67;3.35;;;22.80;66.60;;;;;;4968557;28;20027;-73
2022/01/04 07:04:06;;;;;;;194.35;23.83;;;22.80;66.30;;;;;;4951166;28;20095;-73
2022/01/04 07:06:34;;;;;;;211.70;20.52;;;22.90;66.80;;;;;;4965983;28;20085;-76
2022/01/04 07:09:01;;;;;;;141.77;18.77;;;22.90;66.70;;;;;;4969745;28;20027;-73
2022/01/04 07:11:27;;;;;;;149.00;18.83;;;22.90;66.60;;;;;;4967641;28;20534;-75
2022/01/04 07:13:55;;;;;;;114.95;16.45;;;22.90;66.20;;;;;;4953700;28;20050;-76
2022/01/04 07:16:22;;;;;;;78.93;14.38;;;23.00;66.00;;;;;;4951673;28;20482;-74
2022/01/04 07:18:49;;;;;;;56.13;9.65;;;23.00;65.70;;;;;;4969730;28;20477;-73
2022/01/04 07:21:17;;;;;;;35.15;6.30;;;23.10;65.40;;;;;;4968791;28;20031;-79
2022/01/04 07:23:44;;;;;;;31.17;6.28;;;23.10;65.30;;;;;;4967672;28;20022;-75
2022/01/04 07:26:14;;;;;;;195.02;20.20;;;23.10;65.00;;;;;;4953413;28;20441;-74
2022/01/04 07:28:42;;;;;;;122.00;13.93;;;23.20;65.80;;;;;;4950270;28;20082;-74
2022/01/04 07:31:13;;;;;;;54.60;7.85;;;23.20;65.60;;;;;;4953184;28;20031;-74
2022/01/04 07:33:40;;;;;;;49.72;9.82;;;23.20;65.00;;;;;;4964667;28;20093;-76
2022/01/04 07:36:12;;;;;;;64.93;8.18;;;23.30;64.70;;;;;;4968512;28;20527;-75
2022/01/04 07:38:39;;;;;;;40.97;8.10;;;23.30;64.50;;;;;;4966259;28;20027;-74
2022/01/04 07:41:05;;;;;;;44.13;6.70;;;23.30;64.30;;;;;;4966476;28;20035;-77
2022/01/04 07:43:33;;;;;;;29.27;5.35;;;23.30;64.30;;;;;;4969389;28;20513;-73
2022/01/04 07:46:00;;;;;;;45.22;5.43;;;23.40;64.40;;;;;;4934196;28;20136;-74
2022/01/04 07:48:28;;;;;;;33.80;5.28;;;23.40;64.00;;;;;;4971501;28;20377;-75
2022/01/04 07:50:59;;;;;;;64.65;9.73;;;23.50;64.10;;;;;;4967221;28;20482;-74
2022/01/04 07:53:26;;;;;;;61.53;6.63;;;23.50;64.20;;;;;;4972618;28;20853;-73
2022/01/04 07:55:53;;;;;;;46.85;6.55;;;23.60;64.50;;;;;;4967640;28;20045;-75
2022/01/04 07:58:19;;;;;;;25.50;5.18;;;23.60;63.50;;;;;;4969933;28;20054;-72
2022/01/04 08:00:46;;;;;;;19.85;4.07;;;23.60;63.00;;;;;;4968943;28;20086;-74
2022/01/04 08:03:13;;;;;;;124.13;15.38;;;23.60;62.60;;;;;;4953616;28;20033;-72
2022/01/04 08:05:39;;;;;;;130.15;16.50;;;23.60;62.20;;;;;;4970141;28;20033;-75
2022/01/04 08:08:06;;;;;;;104.72;12.50;;;23.70;62.40;;;;;;4965752;28;20042;-72
2022/01/04 08:10:32;;;;;;;48.40;7.00;;;23.70;62.50;;;;;;4964672;28;20026;-74
2022/01/04 08:12:59;;;;;;;206.73;23.38;;;23.70;62.00;;;;;;4965257;28;20023;-75
2022/01/04 08:15:27;;;;;;;101.43;12.02;;;23.80;61.80;;;;;;4968947;28;20026;-74
2022/01/04 08:17:58;;;;;;;93.55;72.38;;;23.80;61.80;;;;;;4968290;28;20496;-79
2022/01/04 08:20:25;;;;;;;114.25;80.55;;;23.90;60.30;;;;;;4963567;28;20429;-76
2022/01/04 08:22:51;;;;;;;27.10;16.15;;;24.00;60.50;;;;;;4950262;28;20098;-80
2022/01/04 08:25:18;;;;;;;7.65;2.92;;;24.00;60.00;;;;;;4955489;28;20895;-81
2022/01/04 08:27:45;;;;;;;15.93;5.00;;;24.10;59.50;;;;;;4955674;28;20438;-76
2022/01/04 08:30:14;;;;;;;46.28;7.38;;;24.10;59.40;;;;;;4953162;28;20032;-77
2022/01/04 08:32:42;;;;;;;26.35;6.18;;;24.10;60.60;;;;;;4953959;28;20046;-78
2022/01/04 08:35:10;;;;;;;82.70;11.95;;;24.20;61.10;;;;;;4952096;28;20024;-76
2022/01/04 08:37:37;;;;;;;34.28;5.15;;;24.20;61.00;;;;;;4954164;28;20027;-75
2022/01/04 08:40:07;;;;;;;44.45;5.97;;;24.20;61.20;;;;;;4953958;28;20027;-77
2022/01/04 08:42:35;;;;;;;122.00;12.93;;;24.30;61.80;;;;;;4948442;28;20040;-75
2022/01/04 08:45:02;;;;;;;57.40;7.53;;;24.30;61.50;;;;;;4949805;28;21055;-76
2022/01/04 08:47:28;;;;;;;37.33;5.10;;;24.40;61.70;;;;;;4952910;28;20045;-74
2022/01/04 08:49:55;;;;;;;41.05;5.95;;;24.40;61.00;;;;;;4953049;28;20558;-73
2022/01/04 08:52:22;;;;;;;56.33;8.65;;;24.50;60.70;;;;;;4952463;28;20027;-74
2022/01/04 08:54:49;;;;;;;25.27;6.63;;;24.50;60.10;;;;;;4953331;28;20034;-78
2022/01/04 08:57:25;;;;;;;18.85;3.40;;;24.60;59.50;;;;;;4951833;28;20034;-81
2022/01/04 08:59:54;;;;;;;9.20;2.67;;;24.70;58.40;;;;;;4953739;28;20110;-78
2022/01/04 09:02:22;;;;;;;7.53;2.83;;;24.80;57.70;;;;;;4954510;28;20114;-79
2022/01/04 09:04:49;;;;;;;11.48;2.53;;;24.90;57.20;;;;;;4949827;28;20038;-79
2022/01/04 09:07:16;;;;;;;9.80;2.33;;;24.90;56.60;;;;;;4953646;28;20047;-80
2022/01/04 09:09:43;;;;;;;18.85;3.28;;;25.00;56.50;;;;;;4952341;28;20031;-78
2022/01/04 09:12:10;;;;;;;11.55;2.65;;;25.00;55.50;;;;;;4955928;28;20047;-81
2022/01/04 09:20:10;;;;;;;7.15;2.53;;;25.10;55.60;;;;;;4950280;28;20038;-81
2022/01/04 09:22:39;;;;;;;10.05;3.00;;;25.20;55.30;;;;;;4965938;28;20047;-81
2022/01/04 09:25:07;;;;;;;14.05;3.80;;;25.20;55.00;;;;;;4966324;28;20379;-82
2022/01/04 09:27:35;;;;;;;13.38;3.28;;;25.20;55.20;;;;;;4972742;28;20046;-81
2022/01/04 09:30:04;;;;;;;10.02;3.78;;;25.20;55.00;;;;;;4971903;28;20058;-80
2022/01/04 09:32:35;;;;;;;17.90;3.20;;;25.30;55.10;;;;;;4973372;28;20050;-76
2022/01/04 09:35:02;;;;;;;10.85;2.67;;;25.30;55.20;;;;;;4969314;28;20073;-80
2022/01/04 09:37:29;;;;;;;12.45;3.83;;;25.30;54.90;;;;;;4973442;28;20462;-79
2022/01/04 09:39:55;;;;;;;12.27;2.95;;;25.40;54.70;;;;;;4973714;28;20030;-86
2022/01/04 09:42:22;;;;;;;18.67;4.43;;;25.40;55.10;;;;;;4977676;28;20038;-80
2022/01/04 09:44:49;;;;;;;8.00;2.60;;;25.50;55.20;;;;;;4977346;28;20033;-90
2022/01/04 09:47:16;;;;;;;9.98;2.40;;;25.60;54.60;;;;;;4972067;28;20035;-82
2022/01/04 09:49:43;;;;;;;9.60;2.90;;;25.60;54.60;;;;;;4976171;28;20027;-79
2022/01/04 09:52:15;;;;;;;9.75;2.97;;;25.60;54.90;;;;;;4975430;28;20381;-82
2022/01/04 09:54:43;;;;;;;8.88;3.25;;;25.60;55.00;;;;;;4970875;28;20015;-75
2022/01/04 09:57:14;;;;;;;9.00;2.38;;;25.70;54.70;;;;;;4968505;28;20023;-80
2022/01/04 09:59:40;;;;;;;9.38;2.45;;;25.70;53.90;;;;;;4961189;28;20030;-79
2022/01/04 10:02:19;;;;;;;11.95;2.92;;;25.70;53.80;;;;;;4975762;28;20471;-85
2022/01/04 10:04:45;;;;;;;5.97;2.28;;;25.70;53.80;;;;;;4970665;28;20034;-80
2022/01/04 10:07:12;;;;;;;6.60;2.90;;;25.70;53.60;;;;;;4971178;28;20039;-79
2022/01/04 10:09:42;;;;;;;12.27;2.97;;;25.70;53.20;;;;;;4971276;28;20093;-80
2022/01/04 10:12:10;;;;;;;10.15;4.82;;;25.80;53.00;;;;;;4966708;28;20017;-78
2022/01/04 10:14:40;;;;;;;10.40;3.50;;;25.80;52.80;;;;;;4971398;28;20031;-80
2022/01/04 10:17:16;;;;;;;26.65;3.83;;;25.80;52.80;;;;;;4967333;28;20114;-80
2022/01/04 10:19:54;;;;;;;15.35;3.13;;;25.80;53.00;;;;;;4971369;28;20545;-78
2022/01/04 10:22:25;;;;;;;7.20;2.70;;;25.80;52.70;;;;;;4969385;28;20043;-78
2022/01/04 10:25:04;;;;;;;6.28;2.15;;;25.80;52.50;;;;;;4972853;28;20110;-79
2022/01/04 10:27:36;;;;;;;9.43;2.00;;;25.90;52.10;;;;;;4966607;28;20386;-79
2022/01/04 10:30:28;;;;;;;15.30;4.28;;;25.90;51.40;;;;;;4968451;28;20437;-77
2022/01/04 10:33:02;;;;;;;6.05;2.20;;;26.00;51.00;;;;;;4956129;28;20075;-76
2022/01/04 10:35:42;;;;;;;6.78;1.88;;;26.00;51.00;;;;;;4969556;28;20027;-80
2022/01/04 10:38:20;;;;;;;4.50;2.17;;;26.00;50.60;;;;;;4961727;28;20559;-77
2022/01/04 10:41:31;;;;;;;4.43;2.25;;;26.10;50.50;;;;;;4969233;28;20090;-78
2022/01/04 10:44:06;;;;;;;41.30;4.75;;;26.20;50.40;;;;;;4946514;28;20042;-73
2022/01/04 10:46:35;;;;;;;19.70;4.18;;;26.20;49.90;;;;;;4963170;28;20498;-77
2022/01/04 10:49:13;;;;;;;16.77;7.03;;;26.30;49.70;;;;;;4965441;28;20027;-75
2022/01/04 10:51:39;;;;;;;11.82;3.72;;;26.30;49.90;;;;;;4964760;28;20031;-75
2022/01/04 10:54:06;;;;;;;6.05;2.35;;;26.40;50.00;;;;;;4966796;28;20027;-79
2022/01/04 10:56:36;;;;;;;164.80;16.50;;;26.40;50.10;;;;;;4962690;28;20023;-75
2022/01/04 10:59:27;;;;;;;38.47;4.57;;;26.40;50.30;;;;;;4966948;28;20023;-78
2022/01/04 11:01:54;;;;;;;26.17;4.93;;;26.50;50.00;;;;;;4967778;28;20034;-75
2022/01/04 11:04:21;;;;;;;19.95;3.55;;;26.60;49.90;;;;;;4965213;28;20478;-79
2022/01/04 11:06:51;;;;;;;7.72;2.55;;;26.60;50.00;;;;;;4967592;28;20035;-76
2022/01/04 11:09:19;;;;;;;13.90;2.10;;;26.70;49.60;;;;;;4966091;28;20059;-79
2022/01/04 11:11:49;;;;;;;4.32;1.98;;;26.60;49.00;;;;;;4965495;28;20035;-76
2022/01/04 11:14:15;;;;;;;13.02;2.97;;;26.70;48.50;;;;;;4953324;28;20039;-80
2022/01/04 11:16:43;;;;;;;3.67;1.63;;;26.70;48.50;;;;;;4966821;28;20039;-77
2022/01/04 11:19:10;;;;;;;3.90;1.85;;;26.70;48.30;;;;;;4963795;28;20035;-78
2022/01/04 11:21:41;;;;;;;12.20;3.40;;;26.70;48.20;;;;;;4965108;28;20138;-74
2022/01/04 11:24:12;;;;;;;26.58;4.53;;;26.80;48.60;;;;;;4968562;28;20019;-74
2022/01/04 11:26:44;;;;;;;40.90;3.35;;;26.80;48.90;;;;;;4961851;28;20490;-76
2022/01/04 11:29:10;;;;;;;54.03;6.05;;;26.80;48.80;;;;;;4969746;28;20130;-74
2022/01/04 11:32:05;;;;;;;15.65;2.45;;;26.80;48.50;;;;;;4967226;28;20035;-76
2022/01/04 11:34:57;;;;;;;15.30;2.00;;;26.80;48.40;;;;;;4967290;28;20465;-76
2022/01/04 11:37:25;;;;;;;8.15;2.90;;;26.90;48.20;;;;;;4924395;28;20117;-78
2022/01/04 11:39:53;;;;;;;16.30;3.83;;;26.90;48.30;;;;;;4950202;28;20041;-77
2022/01/04 11:42:31;;;;;;;10.45;2.35;;;26.90;48.40;;;;;;4968364;28;20023;-80
2022/01/04 11:45:03;;;;;;;7.88;2.38;;;27.00;48.60;;;;;;4967632;28;20482;-75
2022/01/04 11:47:33;;;;;;;4.82;2.17;;;27.00;48.70;;;;;;4969727;28;20038;-76
2022/01/04 11:50:20;;;;;;;9.15;2.00;;;27.20;48.50;;;;;;4970146;28;20027;-76
2022/01/04 11:52:58;;;;;;;5.00;1.85;;;27.20;48.40;;;;;;4971972;28;20023;-76
2022/01/04 11:55:38;;;;;;;6.65;2.03;;;27.20;48.40;;;;;;4970556;28;20030;-77
2022/01/04 11:58:21;;;;;;;8.73;2.38;;;27.30;48.40;;;;;;4973161;28;20027;-77
2022/01/04 12:01:08;;;;;;;13.70;2.75;;;27.40;48.20;;;;;;4969478;28;20018;-77
2022/01/04 12:03:45;;;;;;;15.20;3.35;;;27.40;48.20;;;;;;4975470;28;21521;-77
2022/01/04 12:06:13;;;;;;;8.88;2.53;;;27.40;48.10;;;;;;4972981;28;20027;-74
2022/01/04 12:08:45;;;;;;;7.90;2.60;;;27.50;48.10;;;;;;4970926;28;20038;-76
2022/01/04 12:11:26;;;;;;;9.15;2.63;;;27.50;48.20;;;;;;4974291;28;20098;-75
2022/01/04 12:13:57;;;;;;;5.25;2.00;;;27.50;48.10;;;;;;4973201;28;20069;-75
2022/01/04 12:16:33;;;;;;;7.50;2.33;;;27.60;48.10;;;;;;4958797;28;20441;-77
2022/01/04 12:19:07;;;;;;;10.70;2.08;;;27.60;47.80;;;;;;4967003;28;20038;-78
2022/01/04 12:21:36;;;;;;;4.50;2.30;;;27.70;47.50;;;;;;4956033;28;20053;-77
2022/01/04 12:24:04;;;;;;;16.55;3.83;;;27.60;47.40;;;;;;4974777;28;20027;-77
2022/01/04 12:26:32;;;;;;;19.10;3.58;;;27.70;47.50;;;;;;4974993;28;20034;-80
2022/01/04 12:28:58;;;;;;;15.13;2.70;;;27.70;47.60;;;;;;4973466;28;20035;-75
2022/01/04 12:31:28;;;;;;;30.65;3.75;;;27.70;47.50;;;;;;4972779;28;20030;-75
2022/01/04 12:34:23;;;;;;;8.90;2.10;;;27.80;47.40;;;;;;4972392;28;20501;-77
2022/01/04 12:36:49;;;;;;;;;;;27.80;47.20;;;;;;4975200;28;20023;-76
2022/01/04 12:39:22;;;;;;;6.13;1.77;;;27.90;46.90;;;;;;4975120;28;19973;-79
2022/01/04 12:41:54;;;;;;;10.43;1.80;;;27.90;46.70;;;;;;4974463;28;20126;-77
2022/01/04 12:44:28;;;;;;;11.93;2.35;;;27.90;46.50;;;;;;4971578;28;20053;-79
2022/01/04 12:46:56;;;;;;;8.10;2.60;;;27.90;47.20;;;;;;4972974;28;20125;-77
2022/01/04 12:49:26;;;;;;;8.50;2.92;;;27.90;46.60;;;;;;4971338;28;20538;-79
2022/01/04 12:51:56;;;;;;;5.97;2.10;;;27.90;46.60;;;;;;4973352;28;20029;-78
2022/01/04 12:54:27;;;;;;;46.90;11.77;;;27.90;47.20;;;;;;4978668;28;20023;-79
2022/01/04 12:57:00;;;;;;;9.55;3.88;;;28.00;47.60;;;;;;4956924;28;20461;-74
2022/01/04 12:59:26;;;;;;;12.57;3.40;;;28.00;47.20;;;;;;4973950;28;20382;-74